sensor_id;sensor_type;location;lat;lon;timestamp;P1;durP1;ratioP1;P2;durP2;ratioP2
31132;SDS011;17779;50.942;4.026;2023-04-25T00:04:04;24.73;;;8.10;;
31132;SDS011;17779;50.942;4.026;2023-04-25T00:06:34;21.83;;;7.53;;
31132;SDS011;17779;50.942;4.026;2023-04-25T00:09:01;27.27;;;7.93;;
31132;SDS011;17779;50.942;4.026;2023-04-25T00:11:32;26.17;;;7.25;;
31132;SDS011;17779;50.942;4.026;2023-04-25T00:16:27;27.92;;;6.60;;
31132;SDS011;17779;50.942;4.026;2023-04-25T00:18:54;21.67;;;7.47;;
31132;SDS011;17779;50.942;4.026;2023-04-25T00:23:47;21.87;;;7.13;;
31132;SDS011;17779;50.942;4.026;2023-04-25T00:26:13;25.13;;;7.50;;
31132;SDS011;17779;50.942;4.026;2023-04-25T00:28:39;27.35;;;7.72;;
31132;SDS011;17779;50.942;4.026;2023-04-25T00:33:30;28.45;;;7.05;;
31132;SDS011;17779;50.942;4.026;2023-04-25T00:35:56;22.70;;;7.32;;
31132;SDS011;17779;50.942;4.026;2023-04-25T00:38:22;25.05;;;7.55;;
31132;SDS011;17779;50.942;4.026;2023-04-25T00:40:48;31.73;;;7.55;;
31132;SDS011;17779;50.942;4.026;2023-04-25T00:43:13;23.60;;;7.25;;
31132;SDS011;17779;50.942;4.026;2023-04-25T00:45:39;22.63;;;6.93;;
31132;SDS011;17779;50.942;4.026;2023-04-25T00:50:32;27.45;;;7.30;;
31132;SDS011;17779;50.942;4.026;2023-04-25T00:52:59;26.05;;;7.70;;
31132;SDS011;17779;50.942;4.026;2023-04-25T00:55:25;24.73;;;6.88;;
31132;SDS011;17779;50.942;4.026;2023-04-25T00:57:51;32.03;;;7.80;;
31132;SDS011;17779;50.942;4.026;2023-04-25T01:00:17;28.23;;;6.20;;
31132;SDS011;17779;50.942;4.026;2023-04-25T01:02:44;29.38;;;7.10;;
31132;SDS011;17779;50.942;4.026;2023-04-25T01:05:10;48.83;;;8.48;;
31132;SDS011;17779;50.942;4.026;2023-04-25T01:07:37;28.38;;;5.97;;
31132;SDS011;17779;50.942;4.026;2023-04-25T01:10:03;26.70;;;6.75;;
31132;SDS011;17779;50.942;4.026;2023-04-25T01:12:31;26.67;;;6.93;;
31132;SDS011;17779;50.942;4.026;2023-04-25T01:14:56;34.30;;;7.35;;
31132;SDS011;17779;50.942;4.026;2023-04-25T01:17:22;27.60;;;7.28;;
31132;SDS011;17779;50.942;4.026;2023-04-25T01:19:49;27.17;;;6.55;;
31132;SDS011;17779;50.942;4.026;2023-04-25T01:22:15;23.23;;;7.18;;
31132;SDS011;17779;50.942;4.026;2023-04-25T01:27:07;30.80;;;6.05;;
31132;SDS011;17779;50.942;4.026;2023-04-25T01:29:34;31.73;;;6.95;;
31132;SDS011;17779;50.942;4.026;2023-04-25T01:34:26;25.97;;;6.27;;
31132;SDS011;17779;50.942;4.026;2023-04-25T01:36:52;27.55;;;6.70;;
31132;SDS011;17779;50.942;4.026;2023-04-25T01:39:19;27.55;;;7.03;;
31132;SDS011;17779;50.942;4.026;2023-04-25T01:41:45;27.60;;;6.32;;
31132;SDS011;17779;50.942;4.026;2023-04-25T01:44:12;32.00;;;6.47;;
31132;SDS011;17779;50.942;4.026;2023-04-25T01:46:38;27.48;;;7.03;;
31132;SDS011;17779;50.942;4.026;2023-04-25T01:49:04;25.23;;;5.82;;
31132;SDS011;17779;50.942;4.026;2023-04-25T01:51:30;25.90;;;6.55;;
31132;SDS011;17779;50.942;4.026;2023-04-25T01:56:22;28.20;;;6.10;;
31132;SDS011;17779;50.942;4.026;2023-04-25T01:58:48;24.70;;;5.50;;
31132;SDS011;17779;50.942;4.026;2023-04-25T02:01:14;28.13;;;5.63;;
31132;SDS011;17779;50.942;4.026;2023-04-25T02:03:40;29.83;;;5.72;;
31132;SDS011;17779;50.942;4.026;2023-04-25T02:06:05;28.30;;;5.88;;
31132;SDS011;17779;50.942;4.026;2023-04-25T02:08:31;30.35;;;6.28;;
31132;SDS011;17779;50.942;4.026;2023-04-25T02:10:57;28.00;;;6.25;;
31132;SDS011;17779;50.942;4.026;2023-04-25T02:13:23;26.10;;;5.13;;
31132;SDS011;17779;50.942;4.026;2023-04-25T02:15:49;26.25;;;5.40;;
31132;SDS011;17779;50.942;4.026;2023-04-25T02:18:14;34.58;;;6.85;;
31132;SDS011;17779;50.942;4.026;2023-04-25T02:20:45;22.73;;;5.38;;
31132;SDS011;17779;50.942;4.026;2023-04-25T02:23:11;26.35;;;5.50;;
31132;SDS011;17779;50.942;4.026;2023-04-25T02:25:36;23.92;;;5.75;;
31132;SDS011;17779;50.942;4.026;2023-04-25T02:28:02;27.15;;;6.07;;
31132;SDS011;17779;50.942;4.026;2023-04-25T02:30:28;26.67;;;6.50;;
31132;SDS011;17779;50.942;4.026;2023-04-25T02:32:54;28.75;;;6.13;;
31132;SDS011;17779;50.942;4.026;2023-04-25T02:35:20;26.05;;;6.00;;
31132;SDS011;17779;50.942;4.026;2023-04-25T02:37:46;30.83;;;6.38;;
31132;SDS011;17779;50.942;4.026;2023-04-25T02:40:12;27.83;;;6.07;;
31132;SDS011;17779;50.942;4.026;2023-04-25T02:42:37;33.42;;;5.97;;
31132;SDS011;17779;50.942;4.026;2023-04-25T02:45:03;29.65;;;5.32;;
31132;SDS011;17779;50.942;4.026;2023-04-25T02:49:55;24.60;;;5.47;;
31132;SDS011;17779;50.942;4.026;2023-04-25T02:52:21;26.38;;;6.20;;
31132;SDS011;17779;50.942;4.026;2023-04-25T02:54:47;28.02;;;6.85;;
31132;SDS011;17779;50.942;4.026;2023-04-25T02:57:12;20.35;;;5.95;;
31132;SDS011;17779;50.942;4.026;2023-04-25T02:59:38;31.25;;;7.22;;
31132;SDS011;17779;50.942;4.026;2023-04-25T03:02:04;25.85;;;5.82;;
31132;SDS011;17779;50.942;4.026;2023-04-25T03:04:32;27.20;;;5.68;;
31132;SDS011;17779;50.942;4.026;2023-04-25T03:07:01;31.15;;;5.15;;
31132;SDS011;17779;50.942;4.026;2023-04-25T03:09:27;21.35;;;5.55;;
31132;SDS011;17779;50.942;4.026;2023-04-25T03:11:53;27.15;;;6.18;;
31132;SDS011;17779;50.942;4.026;2023-04-25T03:14:18;33.53;;;5.80;;
31132;SDS011;17779;50.942;4.026;2023-04-25T03:16:44;23.40;;;5.30;;
31132;SDS011;17779;50.942;4.026;2023-04-25T03:19:10;19.75;;;4.80;;
31132;SDS011;17779;50.942;4.026;2023-04-25T03:21:36;32.33;;;6.40;;
31132;SDS011;17779;50.942;4.026;2023-04-25T03:24:03;24.80;;;5.40;;
31132;SDS011;17779;50.942;4.026;2023-04-25T03:26:29;29.30;;;6.38;;
31132;SDS011;17779;50.942;4.026;2023-04-25T03:28:55;23.75;;;5.78;;
31132;SDS011;17779;50.942;4.026;2023-04-25T03:31:21;29.08;;;5.63;;
31132;SDS011;17779;50.942;4.026;2023-04-25T03:33:47;27.27;;;5.65;;
31132;SDS011;17779;50.942;4.026;2023-04-25T03:36:13;30.70;;;6.03;;
31132;SDS011;17779;50.942;4.026;2023-04-25T03:38:39;25.17;;;5.95;;
31132;SDS011;17779;50.942;4.026;2023-04-25T03:41:06;33.20;;;7.35;;
31132;SDS011;17779;50.942;4.026;2023-04-25T03:43:33;23.00;;;6.10;;
31132;SDS011;17779;50.942;4.026;2023-04-25T03:45:58;23.88;;;5.65;;
31132;SDS011;17779;50.942;4.026;2023-04-25T03:50:51;22.67;;;5.25;;
31132;SDS011;17779;50.942;4.026;2023-04-25T03:53:17;25.67;;;5.82;;
31132;SDS011;17779;50.942;4.026;2023-04-25T03:55:43;30.98;;;6.80;;
31132;SDS011;17779;50.942;4.026;2023-04-25T03:58:09;27.60;;;7.18;;
31132;SDS011;17779;50.942;4.026;2023-04-25T04:00:35;30.25;;;6.82;;
31132;SDS011;17779;50.942;4.026;2023-04-25T04:03:01;27.05;;;6.00;;
31132;SDS011;17779;50.942;4.026;2023-04-25T04:05:27;24.45;;;5.55;;
31132;SDS011;17779;50.942;4.026;2023-04-25T04:07:53;24.10;;;6.75;;
31132;SDS011;17779;50.942;4.026;2023-04-25T04:10:20;26.00;;;6.15;;
31132;SDS011;17779;50.942;4.026;2023-04-25T04:12:46;24.85;;;5.38;;
31132;SDS011;17779;50.942;4.026;2023-04-25T04:15:12;25.38;;;5.28;;
31132;SDS011;17779;50.942;4.026;2023-04-25T04:17:38;22.45;;;5.65;;
31132;SDS011;17779;50.942;4.026;2023-04-25T04:20:04;29.50;;;5.82;;
31132;SDS011;17779;50.942;4.026;2023-04-25T04:22:31;32.55;;;6.97;;
31132;SDS011;17779;50.942;4.026;2023-04-25T04:24:57;19.63;;;5.97;;
31132;SDS011;17779;50.942;4.026;2023-04-25T04:27:23;21.77;;;6.00;;
31132;SDS011;17779;50.942;4.026;2023-04-25T04:29:49;26.52;;;6.72;;
31132;SDS011;17779;50.942;4.026;2023-04-25T04:32:16;21.65;;;5.55;;
31132;SDS011;17779;50.942;4.026;2023-04-25T04:34:42;17.95;;;4.90;;
31132;SDS011;17779;50.942;4.026;2023-04-25T04:37:08;23.48;;;5.53;;
31132;SDS011;17779;50.942;4.026;2023-04-25T04:39:35;23.63;;;5.88;;
31132;SDS011;17779;50.942;4.026;2023-04-25T04:44:28;22.13;;;6.13;;
31132;SDS011;17779;50.942;4.026;2023-04-25T04:46:58;26.20;;;5.93;;
31132;SDS011;17779;50.942;4.026;2023-04-25T04:49:24;23.17;;;5.18;;
31132;SDS011;17779;50.942;4.026;2023-04-25T04:51:51;22.63;;;6.15;;
31132;SDS011;17779;50.942;4.026;2023-04-25T04:54:17;23.25;;;5.53;;
31132;SDS011;17779;50.942;4.026;2023-04-25T04:56:43;21.00;;;6.53;;
31132;SDS011;17779;50.942;4.026;2023-04-25T04:59:09;22.38;;;5.35;;
31132;SDS011;17779;50.942;4.026;2023-04-25T05:01:35;25.17;;;5.60;;
31132;SDS011;17779;50.942;4.026;2023-04-25T05:04:01;25.00;;;4.60;;
31132;SDS011;17779;50.942;4.026;2023-04-25T05:06:28;19.17;;;4.95;;
31132;SDS011;17779;50.942;4.026;2023-04-25T05:11:22;17.88;;;4.80;;
31132;SDS011;17779;50.942;4.026;2023-04-25T05:13:51;23.55;;;5.40;;
31132;SDS011;17779;50.942;4.026;2023-04-25T05:16:19;18.10;;;4.93;;
31132;SDS011;17779;50.942;4.026;2023-04-25T05:18:45;22.73;;;5.30;;
31132;SDS011;17779;50.942;4.026;2023-04-25T05:21:12;20.73;;;4.72;;
31132;SDS011;17779;50.942;4.026;2023-04-25T05:23:38;27.45;;;5.32;;
31132;SDS011;17779;50.942;4.026;2023-04-25T05:26:03;17.42;;;4.47;;
31132;SDS011;17779;50.942;4.026;2023-04-25T05:28:29;21.77;;;4.90;;
31132;SDS011;17779;50.942;4.026;2023-04-25T05:30:55;21.33;;;4.55;;
31132;SDS011;17779;50.942;4.026;2023-04-25T05:33:21;19.10;;;5.25;;
31132;SDS011;17779;50.942;4.026;2023-04-25T05:35:47;24.60;;;5.10;;
31132;SDS011;17779;50.942;4.026;2023-04-25T05:38:13;22.85;;;5.55;;
31132;SDS011;17779;50.942;4.026;2023-04-25T05:40:39;24.70;;;5.53;;
31132;SDS011;17779;50.942;4.026;2023-04-25T05:43:05;16.88;;;4.55;;
31132;SDS011;17779;50.942;4.026;2023-04-25T05:45:32;26.02;;;5.65;;
31132;SDS011;17779;50.942;4.026;2023-04-25T05:47:58;25.40;;;6.05;;
31132;SDS011;17779;50.942;4.026;2023-04-25T05:50:23;29.00;;;5.78;;
31132;SDS011;17779;50.942;4.026;2023-04-25T05:52:49;27.67;;;5.97;;
31132;SDS011;17779;50.942;4.026;2023-04-25T05:55:15;49.75;;;8.60;;
31132;SDS011;17779;50.942;4.026;2023-04-25T05:57:42;70.18;;;10.88;;
31132;SDS011;17779;50.942;4.026;2023-04-25T06:00:11;23.38;;;4.45;;
31132;SDS011;17779;50.942;4.026;2023-04-25T06:02:40;17.90;;;4.18;;
31132;SDS011;17779;50.942;4.026;2023-04-25T06:07:33;18.85;;;4.78;;
31132;SDS011;17779;50.942;4.026;2023-04-25T06:09:59;22.52;;;5.65;;
31132;SDS011;17779;50.942;4.026;2023-04-25T06:12:25;23.30;;;5.75;;
31132;SDS011;17779;50.942;4.026;2023-04-25T06:14:51;21.77;;;4.88;;
31132;SDS011;17779;50.942;4.026;2023-04-25T06:17:17;22.15;;;5.28;;
31132;SDS011;17779;50.942;4.026;2023-04-25T06:19:43;20.70;;;4.72;;
31132;SDS011;17779;50.942;4.026;2023-04-25T06:22:11;26.65;;;5.70;;
31132;SDS011;17779;50.942;4.026;2023-04-25T06:24:37;28.40;;;6.03;;
31132;SDS011;17779;50.942;4.026;2023-04-25T06:27:02;25.20;;;5.28;;
31132;SDS011;17779;50.942;4.026;2023-04-25T06:29:28;19.63;;;4.53;;
31132;SDS011;17779;50.942;4.026;2023-04-25T06:31:54;20.38;;;4.93;;
31132;SDS011;17779;50.942;4.026;2023-04-25T06:34:19;23.48;;;4.78;;
31132;SDS011;17779;50.942;4.026;2023-04-25T06:36:46;19.95;;;4.75;;
31132;SDS011;17779;50.942;4.026;2023-04-25T06:39:12;21.80;;;4.60;;
31132;SDS011;17779;50.942;4.026;2023-04-25T06:41:38;19.90;;;4.20;;
31132;SDS011;17779;50.942;4.026;2023-04-25T06:44:03;22.52;;;4.38;;
31132;SDS011;17779;50.942;4.026;2023-04-25T06:46:29;20.88;;;4.20;;
31132;SDS011;17779;50.942;4.026;2023-04-25T06:48:55;19.60;;;3.70;;
31132;SDS011;17779;50.942;4.026;2023-04-25T06:51:21;20.02;;;4.53;;
31132;SDS011;17779;50.942;4.026;2023-04-25T06:53:47;18.55;;;4.28;;
31132;SDS011;17779;50.942;4.026;2023-04-25T06:56:12;23.77;;;4.80;;
31132;SDS011;17779;50.942;4.026;2023-04-25T06:58:38;18.80;;;3.78;;
31132;SDS011;17779;50.942;4.026;2023-04-25T07:01:04;22.60;;;4.40;;
31132;SDS011;17779;50.942;4.026;2023-04-25T07:03:30;15.15;;;4.43;;
31132;SDS011;17779;50.942;4.026;2023-04-25T07:05:56;15.95;;;3.30;;
31132;SDS011;17779;50.942;4.026;2023-04-25T07:08:21;21.40;;;4.32;;
31132;SDS011;17779;50.942;4.026;2023-04-25T07:10:47;16.40;;;4.43;;
31132;SDS011;17779;50.942;4.026;2023-04-25T07:13:13;18.55;;;3.53;;
31132;SDS011;17779;50.942;4.026;2023-04-25T07:15:39;12.95;;;3.28;;
31132;SDS011;17779;50.942;4.026;2023-04-25T07:18:04;22.65;;;4.03;;
31132;SDS011;17779;50.942;4.026;2023-04-25T07:20:30;13.63;;;3.55;;
31132;SDS011;17779;50.942;4.026;2023-04-25T07:22:57;13.18;;;3.38;;
31132;SDS011;17779;50.942;4.026;2023-04-25T07:25:22;14.98;;;3.20;;
31132;SDS011;17779;50.942;4.026;2023-04-25T07:27:48;15.40;;;3.78;;
31132;SDS011;17779;50.942;4.026;2023-04-25T07:30:14;15.80;;;3.65;;
31132;SDS011;17779;50.942;4.026;2023-04-25T07:32:40;19.60;;;3.75;;
31132;SDS011;17779;50.942;4.026;2023-04-25T07:35:06;15.15;;;3.80;;
31132;SDS011;17779;50.942;4.026;2023-04-25T07:37:33;15.02;;;3.20;;
31132;SDS011;17779;50.942;4.026;2023-04-25T07:40:00;15.82;;;3.10;;
31132;SDS011;17779;50.942;4.026;2023-04-25T07:42:28;13.48;;;3.03;;
31132;SDS011;17779;50.942;4.026;2023-04-25T07:44:54;13.38;;;3.53;;
31132;SDS011;17779;50.942;4.026;2023-04-25T07:47:20;14.60;;;3.38;;
31132;SDS011;17779;50.942;4.026;2023-04-25T07:49:46;15.45;;;3.83;;
31132;SDS011;17779;50.942;4.026;2023-04-25T07:52:11;15.13;;;3.08;;
31132;SDS011;17779;50.942;4.026;2023-04-25T07:54:37;16.33;;;3.00;;
31132;SDS011;17779;50.942;4.026;2023-04-25T07:57:03;11.43;;;2.38;;
31132;SDS011;17779;50.942;4.026;2023-04-25T07:59:31;8.43;;;2.25;;
31132;SDS011;17779;50.942;4.026;2023-04-25T08:01:57;12.27;;;2.38;;
31132;SDS011;17779;50.942;4.026;2023-04-25T08:04:23;19.15;;;6.88;;
31132;SDS011;17779;50.942;4.026;2023-04-25T08:06:50;10.05;;;2.35;;
31132;SDS011;17779;50.942;4.026;2023-04-25T08:09:17;12.88;;;3.33;;
31132;SDS011;17779;50.942;4.026;2023-04-25T08:11:43;15.15;;;2.20;;
31132;SDS011;17779;50.942;4.026;2023-04-25T08:14:09;13.73;;;2.97;;
31132;SDS011;17779;50.942;4.026;2023-04-25T08:16:34;16.50;;;2.78;;
31132;SDS011;17779;50.942;4.026;2023-04-25T08:19:00;17.52;;;3.40;;
31132;SDS011;17779;50.942;4.026;2023-04-25T08:21:26;14.48;;;2.97;;
31132;SDS011;17779;50.942;4.026;2023-04-25T08:23:52;17.40;;;2.80;;
31132;SDS011;17779;50.942;4.026;2023-04-25T08:26:18;11.88;;;2.38;;
31132;SDS011;17779;50.942;4.026;2023-04-25T08:28:44;10.13;;;2.20;;
31132;SDS011;17779;50.942;4.026;2023-04-25T08:31:09;10.70;;;2.42;;
31132;SDS011;17779;50.942;4.026;2023-04-25T08:33:36;16.85;;;2.60;;
31132;SDS011;17779;50.942;4.026;2023-04-25T08:36:03;17.00;;;2.42;;
31132;SDS011;17779;50.942;4.026;2023-04-25T08:38:29;12.55;;;2.75;;
31132;SDS011;17779;50.942;4.026;2023-04-25T08:40:55;16.70;;;2.58;;
31132;SDS011;17779;50.942;4.026;2023-04-25T08:43:24;12.35;;;2.17;;
31132;SDS011;17779;50.942;4.026;2023-04-25T08:45:50;12.57;;;2.55;;
31132;SDS011;17779;50.942;4.026;2023-04-25T08:48:22;11.05;;;2.30;;
31132;SDS011;17779;50.942;4.026;2023-04-25T08:50:50;10.25;;;2.33;;
31132;SDS011;17779;50.942;4.026;2023-04-25T08:53:29;10.43;;;2.45;;
31132;SDS011;17779;50.942;4.026;2023-04-25T08:55:57;11.38;;;2.63;;
31132;SDS011;17779;50.942;4.026;2023-04-25T08:58:24;12.13;;;3.08;;
31132;SDS011;17779;50.942;4.026;2023-04-25T09:00:51;9.70;;;2.17;;
31132;SDS011;17779;50.942;4.026;2023-04-25T09:03:17;11.27;;;2.45;;
31132;SDS011;17779;50.942;4.026;2023-04-25T09:05:44;11.15;;;2.38;;
31132;SDS011;17779;50.942;4.026;2023-04-25T09:08:10;12.48;;;3.20;;
31132;SDS011;17779;50.942;4.026;2023-04-25T09:10:36;9.40;;;1.77;;
31132;SDS011;17779;50.942;4.026;2023-04-25T09:13:06;7.20;;;1.98;;
31132;SDS011;17779;50.942;4.026;2023-04-25T09:15:47;14.18;;;2.53;;
31132;SDS011;17779;50.942;4.026;2023-04-25T09:18:35;14.10;;;2.65;;
31132;SDS011;17779;50.942;4.026;2023-04-25T09:21:06;7.72;;;1.88;;
31132;SDS011;17779;50.942;4.026;2023-04-25T09:23:47;15.30;;;2.45;;
31132;SDS011;17779;50.942;4.026;2023-04-25T09:26:17;7.32;;;1.90;;
31132;SDS011;17779;50.942;4.026;2023-04-25T09:28:45;9.23;;;2.08;;
31132;SDS011;17779;50.942;4.026;2023-04-25T09:31:20;8.43;;;2.00;;
31132;SDS011;17779;50.942;4.026;2023-04-25T09:33:49;8.77;;;1.98;;
31132;SDS011;17779;50.942;4.026;2023-04-25T09:36:15;12.05;;;1.92;;
31132;SDS011;17779;50.942;4.026;2023-04-25T09:38:41;5.25;;;1.50;;
31132;SDS011;17779;50.942;4.026;2023-04-25T09:41:09;4.85;;;1.40;;
31132;SDS011;17779;50.942;4.026;2023-04-25T09:43:35;15.90;;;2.20;;
31132;SDS011;17779;50.942;4.026;2023-04-25T09:46:02;8.80;;;1.90;;
31132;SDS011;17779;50.942;4.026;2023-04-25T09:48:32;7.47;;;1.65;;
31132;SDS011;17779;50.942;4.026;2023-04-25T09:53:39;8.15;;;2.22;;
31132;SDS011;17779;50.942;4.026;2023-04-25T09:56:07;6.10;;;1.63;;
31132;SDS011;17779;50.942;4.026;2023-04-25T09:58:35;6.70;;;2.00;;
31132;SDS011;17779;50.942;4.026;2023-04-25T10:01:04;10.38;;;1.88;;
31132;SDS011;17779;50.942;4.026;2023-04-25T10:03:31;10.13;;;2.00;;
31132;SDS011;17779;50.942;4.026;2023-04-25T10:06:02;6.35;;;2.05;;
31132;SDS011;17779;50.942;4.026;2023-04-25T10:08:33;11.23;;;1.98;;
31132;SDS011;17779;50.942;4.026;2023-04-25T10:11:01;17.48;;;3.50;;
31132;SDS011;17779;50.942;4.026;2023-04-25T10:13:31;11.98;;;2.47;;
31132;SDS011;17779;50.942;4.026;2023-04-25T10:15:58;8.65;;;1.80;;
31132;SDS011;17779;50.942;4.026;2023-04-25T10:18:26;10.15;;;1.73;;
31132;SDS011;17779;50.942;4.026;2023-04-25T10:20:57;32.60;;;6.75;;
31132;SDS011;17779;50.942;4.026;2023-04-25T10:23:24;7.75;;;2.55;;
31132;SDS011;17779;50.942;4.026;2023-04-25T10:25:51;11.55;;;2.22;;
31132;SDS011;17779;50.942;4.026;2023-04-25T10:28:19;19.95;;;3.45;;
31132;SDS011;17779;50.942;4.026;2023-04-25T10:31:04;33.15;;;5.95;;
31132;SDS011;17779;50.942;4.026;2023-04-25T10:33:35;26.50;;;4.72;;
31132;SDS011;17779;50.942;4.026;2023-04-25T10:36:12;8.68;;;1.85;;
31132;SDS011;17779;50.942;4.026;2023-04-25T10:38:47;10.73;;;1.92;;
31132;SDS011;17779;50.942;4.026;2023-04-25T10:41:18;8.88;;;2.50;;
31132;SDS011;17779;50.942;4.026;2023-04-25T10:43:49;7.40;;;1.83;;
31132;SDS011;17779;50.942;4.026;2023-04-25T10:48:49;8.85;;;1.80;;
31132;SDS011;17779;50.942;4.026;2023-04-25T10:51:25;5.90;;;1.75;;
31132;SDS011;17779;50.942;4.026;2023-04-25T10:56:21;4.00;;;1.50;;
31132;SDS011;17779;50.942;4.026;2023-04-25T10:58:51;8.18;;;1.95;;
31132;SDS011;17779;50.942;4.026;2023-04-25T11:01:21;8.07;;;1.80;;
31132;SDS011;17779;50.942;4.026;2023-04-25T11:03:56;7.13;;;1.73;;
31132;SDS011;17779;50.942;4.026;2023-04-25T11:06:27;5.60;;;1.60;;
31132;SDS011;17779;50.942;4.026;2023-04-25T11:09:02;11.23;;;1.95;;
31132;SDS011;17779;50.942;4.026;2023-04-25T11:11:33;11.38;;;2.45;;
31132;SDS011;17779;50.942;4.026;2023-04-25T11:14:02;9.00;;;1.88;;
31132;SDS011;17779;50.942;4.026;2023-04-25T11:16:28;10.48;;;2.00;;
31132;SDS011;17779;50.942;4.026;2023-04-25T11:18:56;7.47;;;1.60;;
31132;SDS011;17779;50.942;4.026;2023-04-25T11:21:25;5.47;;;1.50;;
31132;SDS011;17779;50.942;4.026;2023-04-25T11:23:55;7.40;;;1.98;;
31132;SDS011;17779;50.942;4.026;2023-04-25T11:26:21;10.43;;;1.80;;
31132;SDS011;17779;50.942;4.026;2023-04-25T11:28:48;4.60;;;1.67;;
31132;SDS011;17779;50.942;4.026;2023-04-25T11:31:14;6.60;;;1.73;;
31132;SDS011;17779;50.942;4.026;2023-04-25T11:33:40;5.20;;;1.80;;
31132;SDS011;17779;50.942;4.026;2023-04-25T11:36:07;7.20;;;1.80;;
31132;SDS011;17779;50.942;4.026;2023-04-25T11:38:34;3.85;;;1.20;;
31132;SDS011;17779;50.942;4.026;2023-04-25T11:41:00;8.02;;;1.63;;
31132;SDS011;17779;50.942;4.026;2023-04-25T11:43:25;3.63;;;1.25;;
31132;SDS011;17779;50.942;4.026;2023-04-25T11:45:51;7.43;;;1.45;;
31132;SDS011;17779;50.942;4.026;2023-04-25T11:48:18;6.10;;;1.50;;
31132;SDS011;17779;50.942;4.026;2023-04-25T11:50:44;31.58;;;5.55;;
31132;SDS011;17779;50.942;4.026;2023-04-25T11:53:10;5.20;;;1.30;;
31132;SDS011;17779;50.942;4.026;2023-04-25T11:55:36;6.68;;;1.70;;
31132;SDS011;17779;50.942;4.026;2023-04-25T11:58:03;9.30;;;2.42;;
31132;SDS011;17779;50.942;4.026;2023-04-25T12:00:29;7.63;;;1.98;;
31132;SDS011;17779;50.942;4.026;2023-04-25T12:02:55;5.25;;;1.27;;
31132;SDS011;17779;50.942;4.026;2023-04-25T12:05:28;6.47;;;1.92;;
31132;SDS011;17779;50.942;4.026;2023-04-25T12:07:55;10.25;;;2.10;;
31132;SDS011;17779;50.942;4.026;2023-04-25T12:10:21;7.32;;;1.88;;
31132;SDS011;17779;50.942;4.026;2023-04-25T12:12:49;8.38;;;2.00;;
31132;SDS011;17779;50.942;4.026;2023-04-25T12:15:22;6.03;;;1.70;;
31132;SDS011;17779;50.942;4.026;2023-04-25T12:17:50;5.30;;;1.90;;
31132;SDS011;17779;50.942;4.026;2023-04-25T12:20:20;6.85;;;2.17;;
31132;SDS011;17779;50.942;4.026;2023-04-25T12:22:50;9.95;;;2.10;;
31132;SDS011;17779;50.942;4.026;2023-04-25T12:28:10;14.85;;;2.97;;
31132;SDS011;17779;50.942;4.026;2023-04-25T12:33:36;9.85;;;2.33;;
31132;SDS011;17779;50.942;4.026;2023-04-25T12:36:03;6.75;;;1.65;;
31132;SDS011;17779;50.942;4.026;2023-04-25T12:38:37;9.20;;;1.80;;
31132;SDS011;17779;50.942;4.026;2023-04-25T12:41:04;10.00;;;3.05;;
31132;SDS011;17779;50.942;4.026;2023-04-25T12:45:56;6.60;;;1.70;;
31132;SDS011;17779;50.942;4.026;2023-04-25T12:48:22;8.63;;;2.22;;
31132;SDS011;17779;50.942;4.026;2023-04-25T12:50:49;7.22;;;2.00;;
31132;SDS011;17779;50.942;4.026;2023-04-25T12:53:17;6.70;;;1.70;;
31132;SDS011;17779;50.942;4.026;2023-04-25T12:55:44;117.43;;;8.90;;
31132;SDS011;17779;50.942;4.026;2023-04-25T12:58:12;7.93;;;1.80;;
31132;SDS011;17779;50.942;4.026;2023-04-25T13:00:38;13.48;;;2.20;;
31132;SDS011;17779;50.942;4.026;2023-04-25T13:03:04;6.15;;;1.45;;
31132;SDS011;17779;50.942;4.026;2023-04-25T13:05:30;5.90;;;1.90;;
31132;SDS011;17779;50.942;4.026;2023-04-25T13:07:56;8.40;;;1.83;;
31132;SDS011;17779;50.942;4.026;2023-04-25T13:10:22;8.70;;;2.08;;
31132;SDS011;17779;50.942;4.026;2023-04-25T13:12:48;9.88;;;2.10;;
31132;SDS011;17779;50.942;4.026;2023-04-25T13:15:14;10.88;;;2.58;;
31132;SDS011;17779;50.942;4.026;2023-04-25T13:17:41;9.93;;;2.20;;
31132;SDS011;17779;50.942;4.026;2023-04-25T13:20:07;6.45;;;2.13;;
31132;SDS011;17779;50.942;4.026;2023-04-25T13:22:35;6.22;;;2.00;;
31132;SDS011;17779;50.942;4.026;2023-04-25T13:25:04;6.88;;;2.00;;
31132;SDS011;17779;50.942;4.026;2023-04-25T13:27:31;7.07;;;2.00;;
31132;SDS011;17779;50.942;4.026;2023-04-25T13:30:02;8.15;;;2.17;;
31132;SDS011;17779;50.942;4.026;2023-04-25T13:32:33;12.38;;;2.38;;
31132;SDS011;17779;50.942;4.026;2023-04-25T13:35:01;10.80;;;2.05;;
31132;SDS011;17779;50.942;4.026;2023-04-25T13:37:27;8.73;;;2.20;;
31132;SDS011;17779;50.942;4.026;2023-04-25T13:39:54;9.07;;;2.35;;
31132;SDS011;17779;50.942;4.026;2023-04-25T13:42:21;9.80;;;1.85;;
31132;SDS011;17779;50.942;4.026;2023-04-25T13:44:48;9.07;;;2.03;;
31132;SDS011;17779;50.942;4.026;2023-04-25T13:47:14;6.85;;;1.60;;
31132;SDS011;17779;50.942;4.026;2023-04-25T13:49:39;10.20;;;2.10;;
31132;SDS011;17779;50.942;4.026;2023-04-25T13:52:05;8.00;;;2.08;;
31132;SDS011;17779;50.942;4.026;2023-04-25T13:54:31;6.60;;;2.17;;
31132;SDS011;17779;50.942;4.026;2023-04-25T13:56:57;9.82;;;2.30;;
31132;SDS011;17779;50.942;4.026;2023-04-25T13:59:24;6.63;;;2.22;;
31132;SDS011;17779;50.942;4.026;2023-04-25T14:01:51;4.65;;;1.77;;
31132;SDS011;17779;50.942;4.026;2023-04-25T14:04:20;8.52;;;2.67;;
31132;SDS011;17779;50.942;4.026;2023-04-25T14:06:46;8.68;;;2.40;;
31132;SDS011;17779;50.942;4.026;2023-04-25T14:09:12;10.25;;;2.92;;
31132;SDS011;17779;50.942;4.026;2023-04-25T14:11:38;15.00;;;5.57;;
31132;SDS011;17779;50.942;4.026;2023-04-25T14:14:04;17.42;;;3.92;;
31132;SDS011;17779;50.942;4.026;2023-04-25T14:16:30;8.38;;;2.67;;
31132;SDS011;17779;50.942;4.026;2023-04-25T14:18:57;8.50;;;2.28;;
31132;SDS011;17779;50.942;4.026;2023-04-25T14:21:23;8.95;;;2.95;;
31132;SDS011;17779;50.942;4.026;2023-04-25T14:23:50;8.25;;;2.72;;
31132;SDS011;17779;50.942;4.026;2023-04-25T14:26:15;16.77;;;5.32;;
31132;SDS011;17779;50.942;4.026;2023-04-25T14:28:41;5.95;;;1.90;;
31132;SDS011;17779;50.942;4.026;2023-04-25T14:31:07;13.93;;;2.15;;
31132;SDS011;17779;50.942;4.026;2023-04-25T14:33:33;10.65;;;2.30;;
31132;SDS011;17779;50.942;4.026;2023-04-25T14:38:25;8.95;;;2.25;;
31132;SDS011;17779;50.942;4.026;2023-04-25T14:43:19;7.43;;;2.17;;
31132;SDS011;17779;50.942;4.026;2023-04-25T14:45:44;7.32;;;2.15;;
31132;SDS011;17779;50.942;4.026;2023-04-25T14:48:10;8.70;;;2.05;;
31132;SDS011;17779;50.942;4.026;2023-04-25T14:50:36;10.35;;;2.75;;
31132;SDS011;17779;50.942;4.026;2023-04-25T14:53:02;9.48;;;2.53;;
31132;SDS011;17779;50.942;4.026;2023-04-25T14:55:28;11.77;;;1.92;;
31132;SDS011;17779;50.942;4.026;2023-04-25T14:57:54;11.50;;;1.85;;
31132;SDS011;17779;50.942;4.026;2023-04-25T15:00:21;8.20;;;2.28;;
31132;SDS011;17779;50.942;4.026;2023-04-25T15:02:50;8.75;;;2.20;;
31132;SDS011;17779;50.942;4.026;2023-04-25T15:05:16;11.25;;;2.75;;
31132;SDS011;17779;50.942;4.026;2023-04-25T15:07:42;7.47;;;2.20;;
31132;SDS011;17779;50.942;4.026;2023-04-25T15:10:10;10.75;;;2.10;;
31132;SDS011;17779;50.942;4.026;2023-04-25T15:12:45;6.15;;;1.80;;
31132;SDS011;17779;50.942;4.026;2023-04-25T15:15:11;10.93;;;1.70;;
31132;SDS011;17779;50.942;4.026;2023-04-25T15:17:40;9.73;;;2.20;;
31132;SDS011;17779;50.942;4.026;2023-04-25T15:20:07;10.02;;;2.13;;
31132;SDS011;17779;50.942;4.026;2023-04-25T15:22:35;7.50;;;1.80;;
31132;SDS011;17779;50.942;4.026;2023-04-25T15:25:02;8.05;;;1.90;;
31132;SDS011;17779;50.942;4.026;2023-04-25T15:27:28;4.75;;;1.50;;
31132;SDS011;17779;50.942;4.026;2023-04-25T15:29:54;7.20;;;1.80;;